Погода Тиетена неделю

Сан-Паулу, Бразилия

18 - 24 июля
  • 18июля
    Сегодня
    +12°
    +27°
    Ясно и безоблачно
    ВремяПогодаТемператураВлажностьДавлениеВетер, м/сВероятность осадков
    00:00Ясно и безоблачно+17°C91 %725 мм1.3 м/с5 %
    03:00Ясно и безоблачно+15°C94 %724 мм1.3 м/с5 %
    06:00Ясно и безоблачно+14°C97 %724 мм1.3 м/с5 %
    09:00Ясно и безоблачно+17°C77 %726 мм0.7 м/с5 %
    12:00Ясно и безоблачно+24°C49 %726 мм0.5 м/с5 %
    15:00Ясно и безоблачно+26°C40 %725 мм0.6 м/с5 %
    18:00Ясно и безоблачно+23°C54 %725 мм1.3 м/с5 %
    21:00Ясно и безоблачно+19°C87 %726 мм3.6 м/с5 %
  • 19июля
    Пятница
    +12°
    +27°
    Ясно и безоблачно
    ВремяПогодаТемператураВлажностьДавлениеВетер, м/сВероятность осадков
    00:00Ясно и безоблачно+16°C95 %726 мм2.8 м/с5 %
    03:00Ясно и безоблачно+14°C95 %726 мм2.0 м/с5 %
    06:00Практически безоблачно+13°C96 %726 мм2.3 м/с5 %
    09:00Ясно и безоблачно+15°C81 %728 мм2.4 м/с5 %
    12:00Ясно и безоблачно+22°C52 %728 мм1.9 м/с5 %
    15:00Ясно и безоблачно+26°C38 %727 мм1.6 м/с5 %
    18:00Ясно и безоблачно+21°C61 %726 мм2.3 м/с5 %
    21:00Ясно и безоблачно+17°C75 %726 мм2.2 м/с5 %
  • 20июля
    Суббота
    +11°
    +27°
    Ясно и безоблачно
    ВремяПогодаТемператураВлажностьДавлениеВетер, м/сВероятность осадков
    00:00Ясно и безоблачно+14°C91 %726 мм1.9 м/с5 %
    03:00Ясно и безоблачно+13°C96 %726 мм2.0 м/с5 %
    06:00Облачно с прояснениями+13°C98 %726 мм2.1 м/с5 %
    09:00Практически безоблачно+14°C80 %727 мм2.6 м/с5 %
    12:00Ясно и безоблачно+23°C47 %727 мм2.6 м/с5 %
    15:00Ясно и безоблачно+26°C36 %725 мм1.9 м/с5 %
    18:00Ясно и безоблачно+21°C58 %725 мм2.4 м/с5 %
    21:00Ясно и безоблачно+17°C81 %725 мм3.8 м/с5 %
  • 21июля
    Воскресенье
    +13°
    +27°
    Ясно и безоблачно
    ВремяПогодаТемператураВлажностьДавлениеВетер, м/сВероятность осадков
    00:00Ясно и безоблачно+14°C92 %725 мм2.7 м/с5 %
    03:00Ясно и безоблачно+12°C94 %725 мм2.9 м/с5 %
    06:00Ясно и безоблачно+12°C96 %725 мм2.1 м/с5 %
    09:00Ясно и безоблачно+15°C83 %726 мм1.7 м/с5 %
    12:00Ясно и безоблачно+22°C59 %726 мм1.0 м/с5 %
    15:00Ясно и безоблачно+26°C47 %724 мм0.7 м/с5 %
    18:00Ясно и безоблачно+24°C58 %724 мм1.4 м/с5 %
    21:00Ясно и безоблачно+18°C81 %724 мм1.8 м/с5 %
  • 22июля
    Понедельник
    +13°
    +28°
    Небольшая облачность
    ВремяПогодаТемператураВлажностьДавлениеВетер, м/сВероятность осадков
    00:00Ясно и безоблачно+16°C95 %725 мм2.1 м/с5 %
    03:00Облачно с прояснениями+14°C99 %725 мм1.4 м/с5 %
    06:00Пасмурно, сплошная облачность+15°C99 %725 мм1.7 м/с5 %
    09:00Облачно с прояснениями+14°C94 %727 мм1.7 м/с5 %
    12:00Практически безоблачно+23°C53 %727 мм0.9 м/с5 %
    15:00Небольшая облачность+27°C38 %725 мм0.9 м/с5 %
    18:00Ясно и безоблачно+23°C58 %725 мм2.2 м/с5 %
    21:00Ясно и безоблачно+20°C79 %726 мм3.2 м/с5 %
Мы используем cookies
Соглашаюсь